sensor_id;sensor_type;location;lat;lon;timestamp;P1;durP1;ratioP1;P2;durP2;ratioP2
23015;SDS011;11674;52.428;13.584;2023-03-31T00:02:39;9.02;;;2.50;;
23015;SDS011;11674;52.428;13.584;2023-03-31T00:07:46;8.93;;;2.50;;
23015;SDS011;11674;52.428;13.584;2023-03-31T00:12:53;2.97;;;2.15;;
23015;SDS011;11674;52.428;13.584;2023-03-31T00:18:00;7.15;;;1.95;;
23015;SDS011;11674;52.428;13.584;2023-03-31T00:23:07;5.50;;;2.33;;
23015;SDS011;11674;52.428;13.584;2023-03-31T00:28:14;7.63;;;2.40;;
23015;SDS011;11674;52.428;13.584;2023-03-31T00:33:22;8.40;;;2.28;;
23015;SDS011;11674;52.428;13.584;2023-03-31T00:38:28;6.00;;;1.85;;
23015;SDS011;11674;52.428;13.584;2023-03-31T00:43:36;7.63;;;2.00;;
23015;SDS011;11674;52.428;13.584;2023-03-31T00:48:48;6.80;;;2.00;;
23015;SDS011;11674;52.428;13.584;2023-03-31T00:53:58;3.47;;;1.65;;
23015;SDS011;11674;52.428;13.584;2023-03-31T00:59:10;4.00;;;1.85;;
23015;SDS011;11674;52.428;13.584;2023-03-31T01:04:17;3.55;;;1.77;;
23015;SDS011;11674;52.428;13.584;2023-03-31T01:09:25;7.72;;;3.53;;
23015;SDS011;11674;52.428;13.584;2023-03-31T01:14:34;7.53;;;3.83;;
23015;SDS011;11674;52.428;13.584;2023-03-31T01:20:25;7.63;;;3.05;;
23015;SDS011;11674;52.428;13.584;2023-03-31T01:30:53;11.07;;;5.38;;
23015;SDS011;11674;52.428;13.584;2023-03-31T01:36:14;5.10;;;1.98;;
23015;SDS011;11674;52.428;13.584;2023-03-31T01:47:14;5.72;;;1.92;;
23015;SDS011;11674;52.428;13.584;2023-03-31T01:52:28;7.20;;;1.67;;
23015;SDS011;11674;52.428;13.584;2023-03-31T01:57:52;7.55;;;3.17;;
23015;SDS011;11674;52.428;13.584;2023-03-31T02:03:10;6.25;;;1.67;;
23015;SDS011;11674;52.428;13.584;2023-03-31T02:08:24;3.60;;;1.55;;
23015;SDS011;11674;52.428;13.584;2023-03-31T02:13:37;3.55;;;1.15;;
23015;SDS011;11674;52.428;13.584;2023-03-31T02:18:46;6.88;;;1.30;;
23015;SDS011;11674;52.428;13.584;2023-03-31T02:23:55;5.43;;;1.40;;
23015;SDS011;11674;52.428;13.584;2023-03-31T02:29:03;6.30;;;1.20;;
23015;SDS011;11674;52.428;13.584;2023-03-31T02:34:10;8.02;;;1.55;;
23015;SDS011;11674;52.428;13.584;2023-03-31T02:39:19;4.90;;;1.20;;
23015;SDS011;11674;52.428;13.584;2023-03-31T02:44:31;7.32;;;1.27;;
23015;SDS011;11674;52.428;13.584;2023-03-31T02:49:39;4.78;;;1.33;;
23015;SDS011;11674;52.428;13.584;2023-03-31T02:55:10;2.43;;;1.10;;
23015;SDS011;11674;52.428;13.584;2023-03-31T03:11:17;3.38;;;1.25;;
23015;SDS011;11674;52.428;13.584;2023-03-31T03:17:01;5.15;;;1.20;;
23015;SDS011;11674;52.428;13.584;2023-03-31T03:22:12;2.03;;;1.05;;
23015;SDS011;11674;52.428;13.584;2023-03-31T03:27:20;2.55;;;1.25;;
23015;SDS011;11674;52.428;13.584;2023-03-31T03:32:27;3.38;;;1.25;;
23015;SDS011;11674;52.428;13.584;2023-03-31T03:37:34;4.28;;;1.50;;
23015;SDS011;11674;52.428;13.584;2023-03-31T03:42:41;4.22;;;1.40;;
23015;SDS011;11674;52.428;13.584;2023-03-31T03:47:48;2.20;;;1.15;;
23015;SDS011;11674;52.428;13.584;2023-03-31T03:52:54;4.13;;;1.40;;
23015;SDS011;11674;52.428;13.584;2023-03-31T03:58:02;3.60;;;1.65;;
23015;SDS011;11674;52.428;13.584;2023-03-31T04:03:09;6.20;;;1.35;;
23015;SDS011;11674;52.428;13.584;2023-03-31T04:08:18;4.78;;;1.40;;
23015;SDS011;11674;52.428;13.584;2023-03-31T04:13:26;4.82;;;1.30;;
23015;SDS011;11674;52.428;13.584;2023-03-31T04:18:33;6.22;;;1.40;;
23015;SDS011;11674;52.428;13.584;2023-03-31T04:23:40;5.72;;;1.50;;
23015;SDS011;11674;52.428;13.584;2023-03-31T04:28:48;6.47;;;1.50;;
23015;SDS011;11674;52.428;13.584;2023-03-31T04:33:55;6.13;;;1.70;;
23015;SDS011;11674;52.428;13.584;2023-03-31T04:39:03;11.57;;;2.03;;
23015;SDS011;11674;52.428;13.584;2023-03-31T04:44:10;7.68;;;2.67;;
23015;SDS011;11674;52.428;13.584;2023-03-31T04:49:17;10.73;;;3.08;;
23015;SDS011;11674;52.428;13.584;2023-03-31T04:54:24;6.55;;;2.72;;
23015;SDS011;11674;52.428;13.584;2023-03-31T04:59:37;7.72;;;3.30;;
23015;SDS011;11674;52.428;13.584;2023-03-31T05:04:45;9.68;;;2.72;;
23015;SDS011;11674;52.428;13.584;2023-03-31T05:09:52;6.25;;;2.38;;
23015;SDS011;11674;52.428;13.584;2023-03-31T05:14:59;11.35;;;2.70;;
23015;SDS011;11674;52.428;13.584;2023-03-31T05:20:06;15.32;;;3.35;;
23015;SDS011;11674;52.428;13.584;2023-03-31T05:25:23;11.80;;;3.28;;
23015;SDS011;11674;52.428;13.584;2023-03-31T05:30:31;8.90;;;2.60;;
23015;SDS011;11674;52.428;13.584;2023-03-31T05:35:38;14.75;;;2.40;;
23015;SDS011;11674;52.428;13.584;2023-03-31T05:40:45;9.50;;;2.00;;
23015;SDS011;11674;52.428;13.584;2023-03-31T05:45:52;16.10;;;2.72;;
23015;SDS011;11674;52.428;13.584;2023-03-31T05:50:59;6.25;;;1.95;;
23015;SDS011;11674;52.428;13.584;2023-03-31T05:56:07;8.38;;;2.63;;
23015;SDS011;11674;52.428;13.584;2023-03-31T06:01:14;4.65;;;2.42;;
23015;SDS011;11674;52.428;13.584;2023-03-31T06:06:23;10.27;;;2.88;;
23015;SDS011;11674;52.428;13.584;2023-03-31T06:11:30;7.32;;;2.10;;
23015;SDS011;11674;52.428;13.584;2023-03-31T06:16:37;7.03;;;2.00;;
23015;SDS011;11674;52.428;13.584;2023-03-31T06:21:45;7.60;;;1.98;;
23015;SDS011;11674;52.428;13.584;2023-03-31T06:26:58;4.63;;;1.90;;
23015;SDS011;11674;52.428;13.584;2023-03-31T06:32:06;6.15;;;2.30;;
23015;SDS011;11674;52.428;13.584;2023-03-31T06:37:13;5.45;;;2.33;;
23015;SDS011;11674;52.428;13.584;2023-03-31T06:42:20;9.85;;;2.88;;
23015;SDS011;11674;52.428;13.584;2023-03-31T06:47:27;11.27;;;2.50;;
23015;SDS011;11674;52.428;13.584;2023-03-31T06:52:34;8.35;;;2.53;;
23015;SDS011;11674;52.428;13.584;2023-03-31T06:57:41;9.32;;;2.08;;
23015;SDS011;11674;52.428;13.584;2023-03-31T07:02:48;5.13;;;2.17;;
23015;SDS011;11674;52.428;13.584;2023-03-31T07:07:55;6.68;;;1.92;;
23015;SDS011;11674;52.428;13.584;2023-03-31T07:13:04;6.38;;;2.03;;
23015;SDS011;11674;52.428;13.584;2023-03-31T07:18:11;6.25;;;2.35;;
23015;SDS011;11674;52.428;13.584;2023-03-31T07:23:18;7.82;;;1.90;;
23015;SDS011;11674;52.428;13.584;2023-03-31T07:28:26;4.32;;;1.73;;
23015;SDS011;11674;52.428;13.584;2023-03-31T07:33:33;7.63;;;1.88;;
23015;SDS011;11674;52.428;13.584;2023-03-31T07:38:41;6.88;;;2.00;;
23015;SDS011;11674;52.428;13.584;2023-03-31T07:43:50;7.05;;;2.05;;
23015;SDS011;11674;52.428;13.584;2023-03-31T07:48:57;12.70;;;1.90;;
23015;SDS011;11674;52.428;13.584;2023-03-31T07:54:04;5.70;;;1.70;;
23015;SDS011;11674;52.428;13.584;2023-03-31T07:59:11;5.25;;;1.40;;
23015;SDS011;11674;52.428;13.584;2023-03-31T08:04:18;3.45;;;1.30;;
23015;SDS011;11674;52.428;13.584;2023-03-31T08:09:25;8.70;;;2.78;;
23015;SDS011;11674;52.428;13.584;2023-03-31T08:14:32;6.40;;;1.48;;
23015;SDS011;11674;52.428;13.584;2023-03-31T08:19:39;8.45;;;1.67;;
23015;SDS011;11674;52.428;13.584;2023-03-31T08:24:46;4.03;;;1.85;;
23015;SDS011;11674;52.428;13.584;2023-03-31T08:29:53;4.85;;;1.60;;
23015;SDS011;11674;52.428;13.584;2023-03-31T08:35:00;4.28;;;1.25;;
23015;SDS011;11674;52.428;13.584;2023-03-31T08:40:07;6.50;;;1.65;;
23015;SDS011;11674;52.428;13.584;2023-03-31T08:45:30;4.70;;;1.90;;
23015;SDS011;11674;52.428;13.584;2023-03-31T08:50:42;8.90;;;1.48;;
23015;SDS011;11674;52.428;13.584;2023-03-31T08:55:53;8.20;;;1.27;;
23015;SDS011;11674;52.428;13.584;2023-03-31T09:11:43;8.32;;;1.42;;
23015;SDS011;11674;52.428;13.584;2023-03-31T09:22:12;5.50;;;1.65;;
23015;SDS011;11674;52.428;13.584;2023-03-31T09:27:36;6.93;;;1.52;;
23015;SDS011;11674;52.428;13.584;2023-03-31T09:32:47;4.97;;;1.77;;
23015;SDS011;11674;52.428;13.584;2023-03-31T09:37:58;10.13;;;2.00;;
23015;SDS011;11674;52.428;13.584;2023-03-31T09:43:06;5.18;;;1.50;;
23015;SDS011;11674;52.428;13.584;2023-03-31T09:48:20;6.03;;;1.50;;
23015;SDS011;11674;52.428;13.584;2023-03-31T09:53:39;6.55;;;1.40;;
23015;SDS011;11674;52.428;13.584;2023-03-31T09:58:51;8.32;;;1.90;;
23015;SDS011;11674;52.428;13.584;2023-03-31T10:03:58;2.47;;;1.60;;
23015;SDS011;11674;52.428;13.584;2023-03-31T10:09:05;5.20;;;1.45;;
23015;SDS011;11674;52.428;13.584;2023-03-31T10:14:13;4.72;;;2.20;;
23015;SDS011;11674;52.428;13.584;2023-03-31T10:19:22;5.20;;;2.10;;
23015;SDS011;11674;52.428;13.584;2023-03-31T10:24:40;3.72;;;1.60;;
23015;SDS011;11674;52.428;13.584;2023-03-31T10:29:53;3.00;;;1.40;;
23015;SDS011;11674;52.428;13.584;2023-03-31T10:35:19;5.55;;;1.50;;
23015;SDS011;11674;52.428;13.584;2023-03-31T10:40:32;4.37;;;1.57;;
23015;SDS011;11674;52.428;13.584;2023-03-31T10:45:42;3.45;;;1.35;;
23015;SDS011;11674;52.428;13.584;2023-03-31T10:51:00;8.43;;;2.85;;
23015;SDS011;11674;52.428;13.584;2023-03-31T11:06:52;3.80;;;1.83;;
23015;SDS011;11674;52.428;13.584;2023-03-31T11:12:30;7.60;;;3.17;;
23015;SDS011;11674;52.428;13.584;2023-03-31T11:23:09;3.88;;;2.17;;
23015;SDS011;11674;52.428;13.584;2023-03-31T11:39:14;4.50;;;1.48;;
23015;SDS011;11674;52.428;13.584;2023-03-31T11:44:26;6.38;;;1.70;;
23015;SDS011;11674;52.428;13.584;2023-03-31T11:49:38;3.77;;;1.57;;
23015;SDS011;11674;52.428;13.584;2023-03-31T11:54:54;4.47;;;1.60;;
23015;SDS011;11674;52.428;13.584;2023-03-31T12:00:08;5.53;;;1.80;;
23015;SDS011;11674;52.428;13.584;2023-03-31T12:05:17;5.30;;;1.73;;
23015;SDS011;11674;52.428;13.584;2023-03-31T12:15:40;5.95;;;2.40;;
23015;SDS011;11674;52.428;13.584;2023-03-31T12:20:52;9.63;;;2.43;;
23015;SDS011;11674;52.428;13.584;2023-03-31T12:31:41;4.60;;;1.50;;
23015;SDS011;11674;52.428;13.584;2023-03-31T12:47:33;5.40;;;1.25;;
23015;SDS011;11674;52.428;13.584;2023-03-31T13:03:36;2.08;;;1.50;;
23015;SDS011;11674;52.428;13.584;2023-03-31T13:19:33;5.13;;;1.98;;
23015;SDS011;11674;52.428;13.584;2023-03-31T13:24:41;5.25;;;2.08;;
23015;SDS011;11674;52.428;13.584;2023-03-31T13:29:48;2.60;;;1.30;;
23015;SDS011;11674;52.428;13.584;2023-03-31T13:34:56;5.03;;;1.60;;
23015;SDS011;11674;52.428;13.584;2023-03-31T13:57:11;2.55;;;1.30;;
23015;SDS011;11674;52.428;13.584;2023-03-31T14:02:32;4.28;;;1.48;;
23015;SDS011;11674;52.428;13.584;2023-03-31T14:08:17;2.58;;;1.25;;
23015;SDS011;11674;52.428;13.584;2023-03-31T14:13:35;3.05;;;1.38;;
23015;SDS011;11674;52.428;13.584;2023-03-31T14:18:43;5.78;;;1.58;;
23015;SDS011;11674;52.428;13.584;2023-03-31T14:29:41;3.75;;;1.40;;
23015;SDS011;11674;52.428;13.584;2023-03-31T14:40:21;2.67;;;1.20;;
23015;SDS011;11674;52.428;13.584;2023-03-31T14:45:30;7.57;;;1.70;;
23015;SDS011;11674;52.428;13.584;2023-03-31T14:50:37;2.50;;;1.33;;
23015;SDS011;11674;52.428;13.584;2023-03-31T14:55:47;4.40;;;1.55;;
23015;SDS011;11674;52.428;13.584;2023-03-31T15:00:54;3.72;;;2.03;;
23015;SDS011;11674;52.428;13.584;2023-03-31T15:06:01;2.70;;;1.33;;
23015;SDS011;11674;52.428;13.584;2023-03-31T15:11:14;3.33;;;1.48;;
23015;SDS011;11674;52.428;13.584;2023-03-31T15:16:40;1.77;;;1.30;;
23015;SDS011;11674;52.428;13.584;2023-03-31T15:21:56;2.55;;;1.35;;
23015;SDS011;11674;52.428;13.584;2023-03-31T15:27:13;3.70;;;2.00;;
23015;SDS011;11674;52.428;13.584;2023-03-31T15:32:25;5.20;;;1.60;;
23015;SDS011;11674;52.428;13.584;2023-03-31T15:37:37;3.08;;;1.80;;
23015;SDS011;11674;52.428;13.584;2023-03-31T15:43:03;3.70;;;1.92;;
23015;SDS011;11674;52.428;13.584;2023-03-31T15:48:17;2.92;;;2.20;;
23015;SDS011;11674;52.428;13.584;2023-03-31T15:59:04;5.50;;;2.10;;
23015;SDS011;11674;52.428;13.584;2023-03-31T16:04:12;5.03;;;2.20;;
23015;SDS011;11674;52.428;13.584;2023-03-31T16:09:21;4.22;;;2.00;;
23015;SDS011;11674;52.428;13.584;2023-03-31T16:14:36;6.05;;;1.77;;
23015;SDS011;11674;52.428;13.584;2023-03-31T16:19:53;5.15;;;1.70;;
23015;SDS011;11674;52.428;13.584;2023-03-31T16:25:07;1.98;;;1.40;;
23015;SDS011;11674;52.428;13.584;2023-03-31T16:30:18;3.47;;;1.58;;
23015;SDS011;11674;52.428;13.584;2023-03-31T16:35:39;4.05;;;1.90;;
23015;SDS011;11674;52.428;13.584;2023-03-31T16:40:55;3.08;;;1.90;;
23015;SDS011;11674;52.428;13.584;2023-03-31T16:46:03;3.92;;;1.60;;
23015;SDS011;11674;52.428;13.584;2023-03-31T16:51:10;6.65;;;2.10;;
23015;SDS011;11674;52.428;13.584;2023-03-31T16:56:17;9.30;;;3.15;;
23015;SDS011;11674;52.428;13.584;2023-03-31T17:01:25;16.88;;;9.02;;
23015;SDS011;11674;52.428;13.584;2023-03-31T17:06:32;12.25;;;5.78;;
23015;SDS011;11674;52.428;13.584;2023-03-31T17:11:39;6.30;;;2.60;;
23015;SDS011;11674;52.428;13.584;2023-03-31T17:16:46;4.05;;;2.53;;
23015;SDS011;11674;52.428;13.584;2023-03-31T17:21:53;7.53;;;3.22;;
23015;SDS011;11674;52.428;13.584;2023-03-31T17:27:00;4.70;;;3.05;;
23015;SDS011;11674;52.428;13.584;2023-03-31T17:32:07;5.00;;;3.35;;
23015;SDS011;11674;52.428;13.584;2023-03-31T17:37:14;7.22;;;3.17;;
23015;SDS011;11674;52.428;13.584;2023-03-31T17:42:22;7.38;;;3.10;;
23015;SDS011;11674;52.428;13.584;2023-03-31T17:47:29;4.28;;;2.83;;
23015;SDS011;11674;52.428;13.584;2023-03-31T17:52:37;5.07;;;2.97;;
23015;SDS011;11674;52.428;13.584;2023-03-31T17:57:44;4.38;;;2.80;;
23015;SDS011;11674;52.428;13.584;2023-03-31T18:02:51;6.30;;;3.75;;
23015;SDS011;11674;52.428;13.584;2023-03-31T18:07:58;5.78;;;3.45;;
23015;SDS011;11674;52.428;13.584;2023-03-31T18:13:05;8.43;;;3.67;;
23015;SDS011;11674;52.428;13.584;2023-03-31T18:18:12;4.68;;;3.17;;
23015;SDS011;11674;52.428;13.584;2023-03-31T18:23:19;4.95;;;3.33;;
23015;SDS011;11674;52.428;13.584;2023-03-31T18:28:26;5.25;;;3.38;;
23015;SDS011;11674;52.428;13.584;2023-03-31T18:33:33;6.15;;;3.15;;
23015;SDS011;11674;52.428;13.584;2023-03-31T18:38:40;5.32;;;3.20;;
23015;SDS011;11674;52.428;13.584;2023-03-31T18:43:47;7.13;;;3.60;;
23015;SDS011;11674;52.428;13.584;2023-03-31T18:48:54;7.28;;;3.80;;
23015;SDS011;11674;52.428;13.584;2023-03-31T18:54:01;4.82;;;3.97;;
23015;SDS011;11674;52.428;13.584;2023-03-31T18:59:08;8.60;;;4.88;;
23015;SDS011;11674;52.428;13.584;2023-03-31T19:04:15;6.85;;;4.50;;
23015;SDS011;11674;52.428;13.584;2023-03-31T19:09:22;8.60;;;5.30;;
23015;SDS011;11674;52.428;13.584;2023-03-31T19:14:29;8.02;;;5.25;;
23015;SDS011;11674;52.428;13.584;2023-03-31T19:19:36;7.00;;;5.45;;
23015;SDS011;11674;52.428;13.584;2023-03-31T19:24:43;7.53;;;4.88;;
23015;SDS011;11674;52.428;13.584;2023-03-31T19:29:50;6.85;;;5.05;;
23015;SDS011;11674;52.428;13.584;2023-03-31T19:34:57;6.82;;;4.57;;
23015;SDS011;11674;52.428;13.584;2023-03-31T19:40:04;7.13;;;4.95;;
23015;SDS011;11674;52.428;13.584;2023-03-31T19:45:12;8.35;;;4.65;;
23015;SDS011;11674;52.428;13.584;2023-03-31T19:50:19;8.57;;;5.13;;
23015;SDS011;11674;52.428;13.584;2023-03-31T19:55:26;7.10;;;5.47;;
23015;SDS011;11674;52.428;13.584;2023-03-31T20:00:33;8.88;;;5.68;;
23015;SDS011;11674;52.428;13.584;2023-03-31T20:05:40;7.55;;;5.72;;
23015;SDS011;11674;52.428;13.584;2023-03-31T20:10:47;8.52;;;6.10;;
23015;SDS011;11674;52.428;13.584;2023-03-31T20:16:00;8.60;;;6.65;;
23015;SDS011;11674;52.428;13.584;2023-03-31T20:21:12;9.85;;;6.55;;
23015;SDS011;11674;52.428;13.584;2023-03-31T20:26:23;11.73;;;7.27;;
23015;SDS011;11674;52.428;13.584;2023-03-31T20:31:33;9.82;;;6.40;;
23015;SDS011;11674;52.428;13.584;2023-03-31T20:36:42;8.38;;;5.65;;
23015;SDS011;11674;52.428;13.584;2023-03-31T20:41:50;5.88;;;5.00;;
23015;SDS011;11674;52.428;13.584;2023-03-31T20:46:57;7.13;;;4.78;;
23015;SDS011;11674;52.428;13.584;2023-03-31T20:52:04;8.07;;;4.15;;
23015;SDS011;11674;52.428;13.584;2023-03-31T20:57:11;5.97;;;3.72;;
23015;SDS011;11674;52.428;13.584;2023-03-31T21:02:18;5.35;;;3.22;;
23015;SDS011;11674;52.428;13.584;2023-03-31T21:07:25;4.93;;;2.78;;
23015;SDS011;11674;52.428;13.584;2023-03-31T21:12:32;7.82;;;2.47;;
23015;SDS011;11674;52.428;13.584;2023-03-31T21:17:39;4.10;;;1.75;;
23015;SDS011;11674;52.428;13.584;2023-03-31T21:22:46;5.43;;;1.98;;
23015;SDS011;11674;52.428;13.584;2023-03-31T21:27:53;2.38;;;1.33;;
23015;SDS011;11674;52.428;13.584;2023-03-31T21:33:00;1.95;;;1.20;;
23015;SDS011;11674;52.428;13.584;2023-03-31T21:38:14;7.07;;;0.95;;
23015;SDS011;11674;52.428;13.584;2023-03-31T21:43:21;1.35;;;0.80;;
23015;SDS011;11674;52.428;13.584;2023-03-31T21:48:29;2.63;;;1.00;;
23015;SDS011;11674;52.428;13.584;2023-03-31T21:53:36;5.05;;;1.25;;
23015;SDS011;11674;52.428;13.584;2023-03-31T21:58:43;2.75;;;1.20;;
23015;SDS011;11674;52.428;13.584;2023-03-31T22:03:50;2.97;;;1.23;;
23015;SDS011;11674;52.428;13.584;2023-03-31T22:08:57;3.17;;;1.20;;
23015;SDS011;11674;52.428;13.584;2023-03-31T22:14:04;3.92;;;1.45;;
23015;SDS011;11674;52.428;13.584;2023-03-31T22:19:11;1.98;;;1.20;;
23015;SDS011;11674;52.428;13.584;2023-03-31T22:24:18;6.85;;;1.75;;
23015;SDS011;11674;52.428;13.584;2023-03-31T22:29:25;1.98;;;1.20;;
23015;SDS011;11674;52.428;13.584;2023-03-31T22:34:32;4.75;;;1.85;;
23015;SDS011;11674;52.428;13.584;2023-03-31T22:39:39;2.45;;;1.40;;
23015;SDS011;11674;52.428;13.584;2023-03-31T22:44:46;2.33;;;1.38;;
23015;SDS011;11674;52.428;13.584;2023-03-31T22:49:53;2.65;;;1.30;;
23015;SDS011;11674;52.428;13.584;2023-03-31T22:55:00;4.32;;;1.40;;
23015;SDS011;11674;52.428;13.584;2023-03-31T23:00:07;4.07;;;1.58;;
23015;SDS011;11674;52.428;13.584;2023-03-31T23:05:14;3.83;;;1.75;;
23015;SDS011;11674;52.428;13.584;2023-03-31T23:10:21;1.80;;;1.42;;
23015;SDS011;11674;52.428;13.584;2023-03-31T23:15:29;2.33;;;1.70;;
23015;SDS011;11674;52.428;13.584;2023-03-31T23:20:37;2.45;;;1.58;;
23015;SDS011;11674;52.428;13.584;2023-03-31T23:25:44;6.53;;;1.95;;
23015;SDS011;11674;52.428;13.584;2023-03-31T23:30:52;4.38;;;1.83;;
23015;SDS011;11674;52.428;13.584;2023-03-31T23:36:03;2.42;;;1.60;;
23015;SDS011;11674;52.428;13.584;2023-03-31T23:41:11;2.65;;;1.80;;
23015;SDS011;11674;52.428;13.584;2023-03-31T23:46:18;3.95;;;1.80;;
23015;SDS011;11674;52.428;13.584;2023-03-31T23:51:25;9.15;;;2.40;;
23015;SDS011;11674;52.428;13.584;2023-03-31T23:56:32;3.58;;;2.10;;
